sensor_id;sensor_type;location;lat;lon;timestamp;P1;P2;P0
65556;PMS3003;52200;53.490;14.376;2022-07-23T00:01:23;17.75;13.00;7.50
65556;PMS3003;52200;53.490;14.376;2022-07-23T00:03:49;16.40;12.20;7.20
65556;PMS3003;52200;53.490;14.376;2022-07-23T00:06:15;15.60;10.60;7.00
65556;PMS3003;52200;53.490;14.376;2022-07-23T00:08:41;16.00;11.60;7.00
65556;PMS3003;52200;53.490;14.376;2022-07-23T00:11:07;15.60;11.40;6.80
65556;PMS3003;52200;53.490;14.376;2022-07-23T00:13:32;15.75;10.75;7.00
65556;PMS3003;52200;53.490;14.376;2022-07-23T00:15:58;19.60;14.80;8.80
65556;PMS3003;52200;53.490;14.376;2022-07-23T00:18:23;21.25;15.50;8.00
65556;PMS3003;52200;53.490;14.376;2022-07-23T00:20:49;17.50;14.50;7.50
65556;PMS3003;52200;53.490;14.376;2022-07-23T00:23:15;17.40;10.60;6.40
65556;PMS3003;52200;53.490;14.376;2022-07-23T00:25:41;16.25;11.50;6.75
65556;PMS3003;52200;53.490;14.376;2022-07-23T00:28:06;18.00;15.00;9.00
65556;PMS3003;52200;53.490;14.376;2022-07-23T00:30:32;19.25;14.50;8.00
65556;PMS3003;52200;53.490;14.376;2022-07-23T00:32:59;18.25;14.50;8.00
65556;PMS3003;52200;53.490;14.376;2022-07-23T00:35:27;19.00;14.20;8.00
65556;PMS3003;52200;53.490;14.376;2022-07-23T00:37:55;18.20;14.00;8.00
65556;PMS3003;52200;53.490;14.376;2022-07-23T00:40:21;18.40;14.40;9.00
65556;PMS3003;52200;53.490;14.376;2022-07-23T00:42:47;18.50;14.25;9.00
65556;PMS3003;52200;53.490;14.376;2022-07-23T00:45:12;18.00;13.75;8.75
65556;PMS3003;52200;53.490;14.376;2022-07-23T00:47:38;15.75;12.00;7.00
65556;PMS3003;52200;53.490;14.376;2022-07-23T00:50:04;17.40;12.80;7.00
65556;PMS3003;52200;53.490;14.376;2022-07-23T00:52:32;18.40;14.60;7.80
65556;PMS3003;52200;53.490;14.376;2022-07-23T00:54:59;17.80;13.80;8.00
65556;PMS3003;52200;53.490;14.376;2022-07-23T00:57:25;18.25;14.50;7.00
65556;PMS3003;52200;53.490;14.376;2022-07-23T00:59:51;17.25;13.50;7.00
65556;PMS3003;52200;53.490;14.376;2022-07-23T01:02:16;23.25;16.00;8.00
65556;PMS3003;52200;53.490;14.376;2022-07-23T01:04:42;17.25;14.00;7.00
65556;PMS3003;52200;53.490;14.376;2022-07-23T01:07:07;19.00;13.00;8.00
65556;PMS3003;52200;53.490;14.376;2022-07-23T01:09:33;16.25;12.50;8.00
65556;PMS3003;52200;53.490;14.376;2022-07-23T01:11:59;17.00;13.25;9.00
65556;PMS3003;52200;53.490;14.376;2022-07-23T01:14:25;17.60;13.40;8.00
65556;PMS3003;52200;53.490;14.376;2022-07-23T01:16:51;22.00;15.80;8.20
65556;PMS3003;52200;53.490;14.376;2022-07-23T01:19:17;15.50;11.00;7.00
65556;PMS3003;52200;53.490;14.376;2022-07-23T01:21:44;16.60;13.20;8.00
65556;PMS3003;52200;53.490;14.376;2022-07-23T01:24:14;17.60;14.40;7.00
65556;PMS3003;52200;53.490;14.376;2022-07-23T01:26:41;16.00;12.20;6.60
65556;PMS3003;52200;53.490;14.376;2022-07-23T01:29:09;18.80;14.00;7.00
65556;PMS3003;52200;53.490;14.376;2022-07-23T01:31:35;16.00;12.40;6.80
65556;PMS3003;52200;53.490;14.376;2022-07-23T01:34:01;18.20;13.60;7.00
65556;PMS3003;52200;53.490;14.376;2022-07-23T01:36:28;16.00;12.60;7.00
65556;PMS3003;52200;53.490;14.376;2022-07-23T01:38:53;16.80;12.60;6.60
65556;PMS3003;52200;53.490;14.376;2022-07-23T01:41:19;16.25;12.00;6.00
65556;PMS3003;52200;53.490;14.376;2022-07-23T01:43:45;17.00;13.50;6.50
65556;PMS3003;52200;53.490;14.376;2022-07-23T01:46:10;15.50;12.25;7.00
65556;PMS3003;52200;53.490;14.376;2022-07-23T01:48:36;15.75;10.50;6.00
65556;PMS3003;52200;53.490;14.376;2022-07-23T01:51:01;16.50;12.00;7.00
65556;PMS3003;52200;53.490;14.376;2022-07-23T01:53:27;16.00;13.00;7.00
65556;PMS3003;52200;53.490;14.376;2022-07-23T01:55:52;16.50;12.50;7.00
65556;PMS3003;52200;53.490;14.376;2022-07-23T01:58:18;16.00;12.00;6.00
65556;PMS3003;52200;53.490;14.376;2022-07-23T02:00:43;21.00;14.00;8.25
65556;PMS3003;52200;53.490;14.376;2022-07-23T02:03:09;19.50;15.00;7.00
65556;PMS3003;52200;53.490;14.376;2022-07-23T02:05:34;17.00;12.50;7.00
65556;PMS3003;52200;53.490;14.376;2022-07-23T02:08:00;18.00;13.75;6.75
65556;PMS3003;52200;53.490;14.376;2022-07-23T02:10:26;15.25;11.25;7.00
65556;PMS3003;52200;53.490;14.376;2022-07-23T02:12:52;16.40;13.00;7.60
65556;PMS3003;52200;53.490;14.376;2022-07-23T02:15:18;18.00;14.00;6.50
65556;PMS3003;52200;53.490;14.376;2022-07-23T02:17:43;14.50;11.00;7.00
65556;PMS3003;52200;53.490;14.376;2022-07-23T02:20:09;15.25;11.25;6.50
65556;PMS3003;52200;53.490;14.376;2022-07-23T02:22:36;16.60;12.40;6.20
65556;PMS3003;52200;53.490;14.376;2022-07-23T02:25:02;17.50;13.25;7.00
65556;PMS3003;52200;53.490;14.376;2022-07-23T02:27:28;15.60;12.40;7.40
65556;PMS3003;52200;53.490;14.376;2022-07-23T02:29:54;16.25;11.00;6.50
65556;PMS3003;52200;53.490;14.376;2022-07-23T02:32:20;15.00;12.00;7.00
65556;PMS3003;52200;53.490;14.376;2022-07-23T02:34:46;15.20;11.20;7.00
65556;PMS3003;52200;53.490;14.376;2022-07-23T02:37:12;18.60;13.00;6.00
65556;PMS3003;52200;53.490;14.376;2022-07-23T02:39:38;17.00;12.50;7.00
65556;PMS3003;52200;53.490;14.376;2022-07-23T02:42:03;15.00;11.40;6.00
65556;PMS3003;52200;53.490;14.376;2022-07-23T02:44:29;16.25;12.50;6.00
65556;PMS3003;52200;53.490;14.376;2022-07-23T02:46:54;14.00;9.50;5.50
65556;PMS3003;52200;53.490;14.376;2022-07-23T02:49:20;14.75;10.75;5.00
65556;PMS3003;52200;53.490;14.376;2022-07-23T02:51:45;15.25;11.00;5.25
65556;PMS3003;52200;53.490;14.376;2022-07-23T02:54:11;15.25;12.25;6.00
65556;PMS3003;52200;53.490;14.376;2022-07-23T02:56:36;14.50;9.25;5.25
65556;PMS3003;52200;53.490;14.376;2022-07-23T02:59:02;15.25;10.75;5.50
65556;PMS3003;52200;53.490;14.376;2022-07-23T03:01:27;15.00;12.00;7.00
65556;PMS3003;52200;53.490;14.376;2022-07-23T03:03:53;13.25;10.00;6.00
65556;PMS3003;52200;53.490;14.376;2022-07-23T03:06:18;13.75;10.25;5.00
65556;PMS3003;52200;53.490;14.376;2022-07-23T03:08:44;16.50;12.00;6.75
65556;PMS3003;52200;53.490;14.376;2022-07-23T03:11:09;15.00;11.75;6.50
65556;PMS3003;52200;53.490;14.376;2022-07-23T03:13:36;16.40;12.00;6.80
65556;PMS3003;52200;53.490;14.376;2022-07-23T03:16:02;13.00;9.60;5.60
65556;PMS3003;52200;53.490;14.376;2022-07-23T03:18:28;14.00;10.00;6.00
65556;PMS3003;52200;53.490;14.376;2022-07-23T03:20:54;14.00;10.75;6.00
65556;PMS3003;52200;53.490;14.376;2022-07-23T03:23:19;14.00;8.75;5.75
65556;PMS3003;52200;53.490;14.376;2022-07-23T03:25:44;13.00;9.50;5.25
65556;PMS3003;52200;53.490;14.376;2022-07-23T03:28:13;13.40;9.80;5.40
65556;PMS3003;52200;53.490;14.376;2022-07-23T03:30:40;14.00;10.40;5.00
65556;PMS3003;52200;53.490;14.376;2022-07-23T03:33:06;12.40;9.20;4.40
65556;PMS3003;52200;53.490;14.376;2022-07-23T03:35:32;13.25;8.25;5.00
65556;PMS3003;52200;53.490;14.376;2022-07-23T03:37:57;13.75;9.25;5.75
65556;PMS3003;52200;53.490;14.376;2022-07-23T03:40:23;12.00;7.25;5.00
65556;PMS3003;52200;53.490;14.376;2022-07-23T03:42:48;13.00;10.00;6.00
65556;PMS3003;52200;53.490;14.376;2022-07-23T03:45:14;14.00;9.00;5.00
65556;PMS3003;52200;53.490;14.376;2022-07-23T03:47:39;13.75;10.00;5.00
65556;PMS3003;52200;53.490;14.376;2022-07-23T03:50:05;11.75;7.00;4.00
65556;PMS3003;52200;53.490;14.376;2022-07-23T03:52:31;12.40;7.60;4.80
65556;PMS3003;52200;53.490;14.376;2022-07-23T03:54:57;12.50;8.00;5.00
65556;PMS3003;52200;53.490;14.376;2022-07-23T03:57:22;13.75;10.75;5.00
65556;PMS3003;52200;53.490;14.376;2022-07-23T03:59:48;13.00;9.50;5.00
65556;PMS3003;52200;53.490;14.376;2022-07-23T04:02:14;14.00;11.00;5.60
65556;PMS3003;52200;53.490;14.376;2022-07-23T04:04:40;15.50;11.25;6.00
65556;PMS3003;52200;53.490;14.376;2022-07-23T04:07:05;14.75;10.00;5.25
65556;PMS3003;52200;53.490;14.376;2022-07-23T04:09:33;13.40;9.60;6.40
65556;PMS3003;52200;53.490;14.376;2022-07-23T04:11:58;14.80;11.00;6.00
65556;PMS3003;52200;53.490;14.376;2022-07-23T04:14:24;17.25;12.00;6.00
65556;PMS3003;52200;53.490;14.376;2022-07-23T04:16:50;20.25;13.25;7.00
65556;PMS3003;52200;53.490;14.376;2022-07-23T04:19:15;13.50;8.75;6.00
65556;PMS3003;52200;53.490;14.376;2022-07-23T04:21:40;18.75;15.00;7.00
65556;PMS3003;52200;53.490;14.376;2022-07-23T04:24:06;19.25;13.25;6.75
65556;PMS3003;52200;53.490;14.376;2022-07-23T04:26:31;20.50;14.25;8.25
65556;PMS3003;52200;53.490;14.376;2022-07-23T04:28:57;22.75;16.50;10.00
65556;PMS3003;52200;53.490;14.376;2022-07-23T04:31:22;27.00;18.25;10.00
65556;PMS3003;52200;53.490;14.376;2022-07-23T04:33:48;24.50;20.50;12.00
65556;PMS3003;52200;53.490;14.376;2022-07-23T04:36:13;23.25;19.25;12.00
65556;PMS3003;52200;53.490;14.376;2022-07-23T04:38:39;25.00;18.00;10.50
65556;PMS3003;52200;53.490;14.376;2022-07-23T04:41:04;21.75;16.25;9.00
65556;PMS3003;52200;53.490;14.376;2022-07-23T04:43:30;22.50;13.00;9.00
65556;PMS3003;52200;53.490;14.376;2022-07-23T04:45:55;20.25;15.50;8.00
65556;PMS3003;52200;53.490;14.376;2022-07-23T04:48:20;21.25;16.50;8.00
65556;PMS3003;52200;53.490;14.376;2022-07-23T04:50:46;16.75;11.00;6.75
65556;PMS3003;52200;53.490;14.376;2022-07-23T04:53:11;18.00;13.00;8.00
65556;PMS3003;52200;53.490;14.376;2022-07-23T04:55:37;18.75;13.50;6.50
65556;PMS3003;52200;53.490;14.376;2022-07-23T04:58:02;19.75;14.00;8.00
65556;PMS3003;52200;53.490;14.376;2022-07-23T05:00:28;18.75;12.25;7.00
65556;PMS3003;52200;53.490;14.376;2022-07-23T05:02:53;14.75;10.75;5.75
65556;PMS3003;52200;53.490;14.376;2022-07-23T05:05:19;14.50;11.50;6.75
65556;PMS3003;52200;53.490;14.376;2022-07-23T05:07:44;15.50;10.25;6.00
65556;PMS3003;52200;53.490;14.376;2022-07-23T05:10:09;10.25;7.25;5.00
65556;PMS3003;52200;53.490;14.376;2022-07-23T05:12:35;13.50;9.75;5.75
65556;PMS3003;52200;53.490;14.376;2022-07-23T05:15:00;13.50;8.75;6.00
65556;PMS3003;52200;53.490;14.376;2022-07-23T05:17:26;13.50;9.50;5.25
65556;PMS3003;52200;53.490;14.376;2022-07-23T05:19:51;13.25;9.50;6.00
65556;PMS3003;52200;53.490;14.376;2022-07-23T05:22:17;15.75;10.25;6.00
65556;PMS3003;52200;53.490;14.376;2022-07-23T05:24:42;15.50;10.00;6.00
65556;PMS3003;52200;53.490;14.376;2022-07-23T05:27:08;12.00;8.25;5.25
65556;PMS3003;52200;53.490;14.376;2022-07-23T05:29:33;14.75;10.50;6.00
65556;PMS3003;52200;53.490;14.376;2022-07-23T05:31:59;14.75;9.00;5.00
65556;PMS3003;52200;53.490;14.376;2022-07-23T05:34:24;14.25;8.25;5.00
65556;PMS3003;52200;53.490;14.376;2022-07-23T05:36:50;13.00;9.75;5.00
65556;PMS3003;52200;53.490;14.376;2022-07-23T05:39:15;12.00;8.25;6.00
65556;PMS3003;52200;53.490;14.376;2022-07-23T05:41:41;12.50;7.50;4.00
65556;PMS3003;52200;53.490;14.376;2022-07-23T05:44:06;9.00;5.50;2.75
65556;PMS3003;52200;53.490;14.376;2022-07-23T05:46:32;11.00;5.00;3.00
65556;PMS3003;52200;53.490;14.376;2022-07-23T05:48:57;8.75;4.00;2.50
65556;PMS3003;52200;53.490;14.376;2022-07-23T05:51:23;7.50;4.00;2.00
65556;PMS3003;52200;53.490;14.376;2022-07-23T05:53:49;5.80;2.00;0.80
65556;PMS3003;52200;53.490;14.376;2022-07-23T05:56:15;7.00;4.00;1.00
65556;PMS3003;52200;53.490;14.376;2022-07-23T05:58:41;6.60;3.20;1.20
65556;PMS3003;52200;53.490;14.376;2022-07-23T06:01:08;6.00;3.00;1.00
65556;PMS3003;52200;53.490;14.376;2022-07-23T06:03:34;6.20;2.40;1.00
65556;PMS3003;52200;53.490;14.376;2022-07-23T06:06:00;10.25;5.75;1.00
65556;PMS3003;52200;53.490;14.376;2022-07-23T06:08:25;8.00;2.00;0.00
65556;PMS3003;52200;53.490;14.376;2022-07-23T06:10:51;8.00;3.75;2.00
65556;PMS3003;52200;53.490;14.376;2022-07-23T06:13:19;6.00;2.75;2.00
65556;PMS3003;52200;53.490;14.376;2022-07-23T06:15:45;8.20;4.20;2.00
65556;PMS3003;52200;53.490;14.376;2022-07-23T06:18:11;6.75;3.00;1.00
65556;PMS3003;52200;53.490;14.376;2022-07-23T06:20:36;9.75;3.50;2.00
65556;PMS3003;52200;53.490;14.376;2022-07-23T06:23:02;10.00;5.75;2.00
65556;PMS3003;52200;53.490;14.376;2022-07-23T06:25:27;10.00;6.00;2.75
65556;PMS3003;52200;53.490;14.376;2022-07-23T06:27:53;13.50;6.50;2.50
65556;PMS3003;52200;53.490;14.376;2022-07-23T06:30:18;10.25;3.50;2.00
65556;PMS3003;52200;53.490;14.376;2022-07-23T06:32:44;10.60;5.60;3.40
65556;PMS3003;52200;53.490;14.376;2022-07-23T06:35:13;9.00;5.00;2.80
65556;PMS3003;52200;53.490;14.376;2022-07-23T06:37:40;8.20;4.40;2.00
65556;PMS3003;52200;53.490;14.376;2022-07-23T06:40:05;8.00;4.00;2.00
65556;PMS3003;52200;53.490;14.376;2022-07-23T06:42:31;10.20;4.60;2.60
65556;PMS3003;52200;53.490;14.376;2022-07-23T06:44:56;8.00;3.75;2.00
65556;PMS3003;52200;53.490;14.376;2022-07-23T06:47:22;8.00;4.00;2.00
65556;PMS3003;52200;53.490;14.376;2022-07-23T06:49:47;9.25;3.25;1.00
65556;PMS3003;52200;53.490;14.376;2022-07-23T06:52:13;9.50;4.00;2.25
65556;PMS3003;52200;53.490;14.376;2022-07-23T06:54:38;8.25;4.75;2.50
65556;PMS3003;52200;53.490;14.376;2022-07-23T06:57:04;10.00;5.75;2.25
65556;PMS3003;52200;53.490;14.376;2022-07-23T06:59:29;8.50;4.25;2.75
65556;PMS3003;52200;53.490;14.376;2022-07-23T07:01:55;11.50;6.25;2.25
65556;PMS3003;52200;53.490;14.376;2022-07-23T07:04:20;8.00;4.00;1.50
65556;PMS3003;52200;53.490;14.376;2022-07-23T07:06:46;9.00;5.00;2.00
65556;PMS3003;52200;53.490;14.376;2022-07-23T07:09:11;7.75;3.00;2.00
65556;PMS3003;52200;53.490;14.376;2022-07-23T07:11:37;8.50;4.00;2.75
65556;PMS3003;52200;53.490;14.376;2022-07-23T07:14:02;8.75;5.50;2.00
65556;PMS3003;52200;53.490;14.376;2022-07-23T07:16:29;8.40;4.00;2.40
65556;PMS3003;52200;53.490;14.376;2022-07-23T07:18:54;10.00;5.00;1.25
65556;PMS3003;52200;53.490;14.376;2022-07-23T07:21:20;7.25;3.75;2.00
65556;PMS3003;52200;53.490;14.376;2022-07-23T07:23:45;8.00;5.00;2.00
65556;PMS3003;52200;53.490;14.376;2022-07-23T07:26:11;7.00;3.50;1.00
65556;PMS3003;52200;53.490;14.376;2022-07-23T07:28:36;7.50;3.00;1.00
65556;PMS3003;52200;53.490;14.376;2022-07-23T07:31:02;9.25;3.75;1.00
65556;PMS3003;52200;53.490;14.376;2022-07-23T07:33:28;7.25;3.00;1.00
65556;PMS3003;52200;53.490;14.376;2022-07-23T07:35:54;8.00;4.00;1.00
65556;PMS3003;52200;53.490;14.376;2022-07-23T07:38:19;7.00;4.00;1.50
65556;PMS3003;52200;53.490;14.376;2022-07-23T07:40:45;5.50;3.25;1.00
65556;PMS3003;52200;53.490;14.376;2022-07-23T07:43:10;6.00;4.25;2.00
65556;PMS3003;52200;53.490;14.376;2022-07-23T07:45:36;8.00;5.75;2.00
65556;PMS3003;52200;53.490;14.376;2022-07-23T07:48:01;5.50;2.75;1.00
65556;PMS3003;52200;53.490;14.376;2022-07-23T07:50:27;6.50;2.75;1.00
65556;PMS3003;52200;53.490;14.376;2022-07-23T07:52:52;5.25;2.00;0.00
65556;PMS3003;52200;53.490;14.376;2022-07-23T07:55:18;6.00;2.75;1.00
65556;PMS3003;52200;53.490;14.376;2022-07-23T07:57:43;5.00;2.00;0.75
65556;PMS3003;52200;53.490;14.376;2022-07-23T08:00:09;5.50;1.25;0.25
65556;PMS3003;52200;53.490;14.376;2022-07-23T08:02:39;5.20;2.00;1.00
65556;PMS3003;52200;53.490;14.376;2022-07-23T08:05:06;7.00;3.60;1.00
65556;PMS3003;52200;53.490;14.376;2022-07-23T08:07:32;4.00;0.80;0.00
65556;PMS3003;52200;53.490;14.376;2022-07-23T08:09:58;6.00;2.25;0.75
65556;PMS3003;52200;53.490;14.376;2022-07-23T08:12:23;5.00;2.00;0.00
65556;PMS3003;52200;53.490;14.376;2022-07-23T08:14:49;5.25;1.50;0.00
65556;PMS3003;52200;53.490;14.376;2022-07-23T08:17:14;4.00;1.00;0.00
65556;PMS3003;52200;53.490;14.376;2022-07-23T08:19:40;5.25;2.00;1.00
65556;PMS3003;52200;53.490;14.376;2022-07-23T08:22:05;5.00;1.75;0.00
65556;PMS3003;52200;53.490;14.376;2022-07-23T08:24:30;5.00;2.00;0.00
65556;PMS3003;52200;53.490;14.376;2022-07-23T08:26:56;5.50;1.25;0.00
65556;PMS3003;52200;53.490;14.376;2022-07-23T08:29:21;7.50;2.00;0.00
65556;PMS3003;52200;53.490;14.376;2022-07-23T08:31:47;6.00;2.00;1.00
65556;PMS3003;52200;53.490;14.376;2022-07-23T08:34:12;5.00;0.75;0.00
65556;PMS3003;52200;53.490;14.376;2022-07-23T08:36:38;4.75;1.00;0.00
65556;PMS3003;52200;53.490;14.376;2022-07-23T08:39:03;4.00;2.00;0.00
65556;PMS3003;52200;53.490;14.376;2022-07-23T08:41:29;6.50;2.00;1.00
65556;PMS3003;52200;53.490;14.376;2022-07-23T08:43:54;4.40;0.00;0.00
65556;PMS3003;52200;53.490;14.376;2022-07-23T08:46:21;5.00;1.60;0.00
65556;PMS3003;52200;53.490;14.376;2022-07-23T08:48:48;7.60;2.00;0.00
65556;PMS3003;52200;53.490;14.376;2022-07-23T08:51:15;5.40;1.60;0.00
65556;PMS3003;52200;53.490;14.376;2022-07-23T08:53:41;5.00;1.00;0.00
65556;PMS3003;52200;53.490;14.376;2022-07-23T08:56:07;6.80;3.00;1.00
65556;PMS3003;52200;53.490;14.376;2022-07-23T08:58:33;6.00;1.00;0.00
65556;PMS3003;52200;53.490;14.376;2022-07-23T09:01:00;5.60;2.80;1.00
65556;PMS3003;52200;53.490;14.376;2022-07-23T09:03:27;5.40;2.00;0.60
65556;PMS3003;52200;53.490;14.376;2022-07-23T09:05:55;7.00;2.80;1.00
65556;PMS3003;52200;53.490;14.376;2022-07-23T09:08:26;6.60;3.40;0.00
65556;PMS3003;52200;53.490;14.376;2022-07-23T09:11:00;8.00;3.00;0.60
65556;PMS3003;52200;53.490;14.376;2022-07-23T09:15:59;5.60;3.00;1.40
65556;PMS3003;52200;53.490;14.376;2022-07-23T09:18:39;4.80;1.00;0.00
65556;PMS3003;52200;53.490;14.376;2022-07-23T09:21:10;5.60;1.40;0.00
65556;PMS3003;52200;53.490;14.376;2022-07-23T09:24:05;5.80;2.00;1.00
65556;PMS3003;52200;53.490;14.376;2022-07-23T09:26:39;5.00;1.80;0.00
65556;PMS3003;52200;53.490;14.376;2022-07-23T09:29:27;7.80;3.80;0.00
65556;PMS3003;52200;53.490;14.376;2022-07-23T09:31:59;5.00;1.40;0.20
65556;PMS3003;52200;53.490;14.376;2022-07-23T09:34:34;5.40;3.00;0.20
65556;PMS3003;52200;53.490;14.376;2022-07-23T09:37:10;6.20;3.20;1.00
65556;PMS3003;52200;53.490;14.376;2022-07-23T09:39:38;4.80;2.00;0.00
65556;PMS3003;52200;53.490;14.376;2022-07-23T09:44:43;4.60;3.40;0.80
65556;PMS3003;52200;53.490;14.376;2022-07-23T09:47:09;5.40;3.80;0.80
65556;PMS3003;52200;53.490;14.376;2022-07-23T09:49:35;4.00;3.00;1.00
65556;PMS3003;52200;53.490;14.376;2022-07-23T09:52:01;3.75;3.50;0.00
65556;PMS3003;52200;53.490;14.376;2022-07-23T09:57:09;4.40;3.80;0.00
65556;PMS3003;52200;53.490;14.376;2022-07-23T09:59:40;4.60;4.20;0.00
65556;PMS3003;52200;53.490;14.376;2022-07-23T10:02:08;5.20;4.00;0.00
65556;PMS3003;52200;53.490;14.376;2022-07-23T10:04:35;4.80;4.00;0.00
65556;PMS3003;52200;53.490;14.376;2022-07-23T10:07:03;3.20;2.80;0.00
65556;PMS3003;52200;53.490;14.376;2022-07-23T10:09:33;3.80;2.60;0.00
65556;PMS3003;52200;53.490;14.376;2022-07-23T10:12:02;5.00;3.80;0.00
65556;PMS3003;52200;53.490;14.376;2022-07-23T10:14:49;4.80;2.20;0.20
65556;PMS3003;52200;53.490;14.376;2022-07-23T10:17:15;5.00;2.60;0.00
65556;PMS3003;52200;53.490;14.376;2022-07-23T10:19:41;3.60;0.80;0.00
65556;PMS3003;52200;53.490;14.376;2022-07-23T10:22:08;5.60;2.00;0.00
65556;PMS3003;52200;53.490;14.376;2022-07-23T10:24:40;4.80;3.20;0.00
65556;PMS3003;52200;53.490;14.376;2022-07-23T10:27:47;3.00;1.60;0.00
65556;PMS3003;52200;53.490;14.376;2022-07-23T10:30:39;3.20;2.80;0.00
65556;PMS3003;52200;53.490;14.376;2022-07-23T10:36:52;3.60;3.00;0.00
65556;PMS3003;52200;53.490;14.376;2022-07-23T10:39:13;3.00;2.20;0.00
65556;PMS3003;52200;53.490;14.376;2022-07-23T10:41:44;6.20;4.00;0.00
65556;PMS3003;52200;53.490;14.376;2022-07-23T10:44:17;4.00;3.00;0.00
65556;PMS3003;52200;53.490;14.376;2022-07-23T10:46:55;3.40;3.40;0.00
65556;PMS3003;52200;53.490;14.376;2022-07-23T10:49:41;3.00;2.20;0.00
65556;PMS3003;52200;53.490;14.376;2022-07-23T10:54:47;3.00;3.00;0.00
65556;PMS3003;52200;53.490;14.376;2022-07-23T10:57:18;3.00;2.60;0.00
65556;PMS3003;52200;53.490;14.376;2022-07-23T11:02:43;4.20;3.00;0.00
65556;PMS3003;52200;53.490;14.376;2022-07-23T11:05:11;4.80;3.00;1.00
65556;PMS3003;52200;53.490;14.376;2022-07-23T11:08:09;2.00;2.00;0.00
65556;PMS3003;52200;53.490;14.376;2022-07-23T11:13:37;4.80;2.20;0.00
65556;PMS3003;52200;53.490;14.376;2022-07-23T11:26:43;2.60;2.60;0.00
65556;PMS3003;52200;53.490;14.376;2022-07-23T11:37:06;3.60;3.00;0.00
65556;PMS3003;52200;53.490;14.376;2022-07-23T11:39:35;2.80;2.60;0.00
65556;PMS3003;52200;53.490;14.376;2022-07-23T11:42:01;3.80;3.00;0.00
65556;PMS3003;52200;53.490;14.376;2022-07-23T11:44:32;3.00;3.00;0.00
65556;PMS3003;52200;53.490;14.376;2022-07-23T11:46:59;3.00;3.00;0.00
65556;PMS3003;52200;53.490;14.376;2022-07-23T11:49:29;3.00;2.40;0.00
65556;PMS3003;52200;53.490;14.376;2022-07-23T11:52:13;3.00;3.00;0.00
65556;PMS3003;52200;53.490;14.376;2022-07-23T11:54:47;3.00;3.00;0.20
65556;PMS3003;52200;53.490;14.376;2022-07-23T11:57:18;4.80;3.00;0.00
65556;PMS3003;52200;53.490;14.376;2022-07-23T11:59:45;4.60;4.20;0.40
65556;PMS3003;52200;53.490;14.376;2022-07-23T12:02:14;3.80;3.20;0.00
65556;PMS3003;52200;53.490;14.376;2022-07-23T12:04:47;3.25;3.00;0.00
65556;PMS3003;52200;53.490;14.376;2022-07-23T12:07:34;3.40;3.00;0.00
65556;PMS3003;52200;53.490;14.376;2022-07-23T12:12:39;4.20;3.80;0.00
65556;PMS3003;52200;53.490;14.376;2022-07-23T12:15:07;3.00;3.00;0.00
65556;PMS3003;52200;53.490;14.376;2022-07-23T12:17:35;3.00;3.00;0.00
65556;PMS3003;52200;53.490;14.376;2022-07-23T12:20:03;4.00;4.00;0.00
65556;PMS3003;52200;53.490;14.376;2022-07-23T12:22:49;3.00;3.00;0.00
65556;PMS3003;52200;53.490;14.376;2022-07-23T12:25:17;4.00;3.00;0.00
65556;PMS3003;52200;53.490;14.376;2022-07-23T12:27:45;3.20;3.20;0.00
65556;PMS3003;52200;53.490;14.376;2022-07-23T12:30:24;5.60;4.60;0.80
65556;PMS3003;52200;53.490;14.376;2022-07-23T12:32:52;4.80;4.20;0.20
65556;PMS3003;52200;53.490;14.376;2022-07-23T12:35:20;3.00;3.00;0.00
65556;PMS3003;52200;53.490;14.376;2022-07-23T12:37:46;2.80;2.40;0.00
65556;PMS3003;52200;53.490;14.376;2022-07-23T12:40:36;3.60;3.60;0.00
65556;PMS3003;52200;53.490;14.376;2022-07-23T12:43:23;3.00;3.00;0.00
65556;PMS3003;52200;53.490;14.376;2022-07-23T12:48:27;2.40;2.00;0.00
65556;PMS3003;52200;53.490;14.376;2022-07-23T12:53:39;2.00;2.00;0.00
65556;PMS3003;52200;53.490;14.376;2022-07-23T12:58:43;2.20;2.20;0.00
65556;PMS3003;52200;53.490;14.376;2022-07-23T13:01:10;3.00;2.80;0.00
65556;PMS3003;52200;53.490;14.376;2022-07-23T13:06:39;4.00;3.40;0.00
65556;PMS3003;52200;53.490;14.376;2022-07-23T13:09:08;2.00;2.00;0.00
65556;PMS3003;52200;53.490;14.376;2022-07-23T13:11:34;2.00;2.00;0.00
65556;PMS3003;52200;53.490;14.376;2022-07-23T13:14:00;3.00;2.50;0.00
65556;PMS3003;52200;53.490;14.376;2022-07-23T13:16:27;3.60;2.80;0.00
65556;PMS3003;52200;53.490;14.376;2022-07-23T13:18:53;3.00;2.80;0.00
65556;PMS3003;52200;53.490;14.376;2022-07-23T13:21:18;1.00;1.00;0.00
65556;PMS3003;52200;53.490;14.376;2022-07-23T13:23:44;3.00;2.75;0.00
65556;PMS3003;52200;53.490;14.376;2022-07-23T13:26:09;6.75;5.75;0.00
65556;PMS3003;52200;53.490;14.376;2022-07-23T13:28:35;2.00;2.00;0.00
65556;PMS3003;52200;53.490;14.376;2022-07-23T13:31:01;3.00;3.00;0.00
65556;PMS3003;52200;53.490;14.376;2022-07-23T13:33:26;3.00;3.00;0.00
65556;PMS3003;52200;53.490;14.376;2022-07-23T13:35:53;2.50;2.00;0.00
65556;PMS3003;52200;53.490;14.376;2022-07-23T13:38:19;3.00;3.00;0.00
65556;PMS3003;52200;53.490;14.376;2022-07-23T13:40:46;3.40;2.60;0.00
65556;PMS3003;52200;53.490;14.376;2022-07-23T13:43:14;2.80;2.60;0.00
65556;PMS3003;52200;53.490;14.376;2022-07-23T13:45:43;3.40;2.40;0.00
65556;PMS3003;52200;53.490;14.376;2022-07-23T13:48:09;3.60;3.60;0.00
65556;PMS3003;52200;53.490;14.376;2022-07-23T13:50:36;4.00;4.00;1.00
65556;PMS3003;52200;53.490;14.376;2022-07-23T13:53:03;2.00;2.00;0.00
65556;PMS3003;52200;53.490;14.376;2022-07-23T13:55:33;2.00;2.00;0.00
65556;PMS3003;52200;53.490;14.376;2022-07-23T13:57:59;2.20;2.20;0.00
65556;PMS3003;52200;53.490;14.376;2022-07-23T14:00:26;4.00;4.00;0.00
65556;PMS3003;52200;53.490;14.376;2022-07-23T14:02:53;3.00;2.60;0.00
65556;PMS3003;52200;53.490;14.376;2022-07-23T14:05:19;5.60;5.20;1.00
65556;PMS3003;52200;53.490;14.376;2022-07-23T14:07:45;2.00;2.00;0.00
65556;PMS3003;52200;53.490;14.376;2022-07-23T14:10:12;2.60;1.80;0.00
65556;PMS3003;52200;53.490;14.376;2022-07-23T14:12:38;3.00;2.60;0.00
65556;PMS3003;52200;53.490;14.376;2022-07-23T14:15:04;7.25;6.00;0.00
65556;PMS3003;52200;53.490;14.376;2022-07-23T14:17:31;1.60;1.60;0.00
65556;PMS3003;52200;53.490;14.376;2022-07-23T14:19:58;1.20;1.20;0.00
65556;PMS3003;52200;53.490;14.376;2022-07-23T14:22:24;1.20;1.20;0.00
65556;PMS3003;52200;53.490;14.376;2022-07-23T14:24:50;3.00;2.00;0.00
65556;PMS3003;52200;53.490;14.376;2022-07-23T14:27:15;3.00;2.00;0.00
65556;PMS3003;52200;53.490;14.376;2022-07-23T14:29:41;1.75;1.75;0.00
65556;PMS3003;52200;53.490;14.376;2022-07-23T14:32:07;3.40;2.80;0.00
65556;PMS3003;52200;53.490;14.376;2022-07-23T14:34:32;3.25;2.25;0.00
65556;PMS3003;52200;53.490;14.376;2022-07-23T14:36:58;3.00;3.00;0.00
65556;PMS3003;52200;53.490;14.376;2022-07-23T14:39:24;1.20;1.20;0.00
65556;PMS3003;52200;53.490;14.376;2022-07-23T14:41:50;3.00;3.00;0.00
65556;PMS3003;52200;53.490;14.376;2022-07-23T14:44:15;3.25;3.25;0.00
65556;PMS3003;52200;53.490;14.376;2022-07-23T14:46:41;3.00;3.00;0.00
65556;PMS3003;52200;53.490;14.376;2022-07-23T14:49:06;3.00;2.25;0.00
65556;PMS3003;52200;53.490;14.376;2022-07-23T14:51:32;2.75;2.75;0.00
65556;PMS3003;52200;53.490;14.376;2022-07-23T14:53:57;2.50;2.00;0.00